createdAt,value
2019-06-15T00:00:55.602Z,0.00
2019-06-15T00:01:48.016Z,0.00
2019-06-15T00:02:48.069Z,0.00
2019-06-15T00:03:47.982Z,0.00
2019-06-15T00:05:02.601Z,0.00
2019-06-15T00:05:47.916Z,0.00
2019-06-15T00:06:47.989Z,0.00
2019-06-15T00:07:47.873Z,0.00
2019-06-15T00:08:49.015Z,0.00
2019-06-15T00:09:47.823Z,0.00
2019-06-15T00:10:48.818Z,0.00
2019-06-15T00:11:47.775Z,0.00
2019-06-15T00:12:47.795Z,0.00
2019-06-15T00:13:47.759Z,0.00
2019-06-15T00:14:47.824Z,0.00
2019-06-15T00:15:47.683Z,0.00
2019-06-15T00:16:47.730Z,0.00
2019-06-15T00:17:47.666Z,0.00
2019-06-15T00:18:47.642Z,0.00
2019-06-15T00:19:47.582Z,0.00
2019-06-15T00:20:49.626Z,0.00
2019-06-15T00:21:47.585Z,0.00
2019-06-15T00:22:47.584Z,0.00
2019-06-15T00:23:47.596Z,0.00
2019-06-15T00:24:47.506Z,0.00
2019-06-15T00:25:47.530Z,0.00
2019-06-15T00:26:49.460Z,0.00
2019-06-15T00:27:47.401Z,0.00
2019-06-15T00:28:47.436Z,0.00
2019-06-15T00:29:47.349Z,0.00
2019-06-15T00:30:47.443Z,0.00
2019-06-15T00:31:47.370Z,0.00
2019-06-15T00:32:47.358Z,0.00
2019-06-15T00:33:47.247Z,0.00
2019-06-15T00:34:48.295Z,0.00
2019-06-15T00:35:47.230Z,0.00
2019-06-15T00:36:47.276Z,0.00
2019-06-15T00:37:47.168Z,0.00
2019-06-15T00:38:48.211Z,0.00
2019-06-15T00:39:47.126Z,0.00
2019-06-15T00:40:47.204Z,0.00
2019-06-15T00:41:47.081Z,0.00
2019-06-15T00:42:47.110Z,0.00
2019-06-15T00:43:47.007Z,0.00
2019-06-15T00:44:46.987Z,0.00
2019-06-15T00:45:46.969Z,0.00
2019-06-15T00:46:47.959Z,0.00
2019-06-15T00:47:46.925Z,0.00
2019-06-15T00:48:47.974Z,0.00
2019-06-15T00:49:46.851Z,0.00
2019-06-15T00:50:46.946Z,0.00
2019-06-15T00:51:46.823Z,0.00
2019-06-15T00:52:47.900Z,0.00
2019-06-15T00:53:46.782Z,0.00
2019-06-15T00:54:50.462Z,0.00
2019-06-15T00:55:46.730Z,0.00
2019-06-15T00:56:46.814Z,0.00
2019-06-15T00:57:46.660Z,0.00
2019-06-15T00:58:53.665Z,0.00
2019-06-15T00:59:46.607Z,0.00
2019-06-15T01:00:48.655Z,0.00
2019-06-15T01:01:46.552Z,0.00
2019-06-15T01:03:46.539Z,0.00
2019-06-15T01:04:55.161Z,0.00
2019-06-15T01:05:46.503Z,0.00
2019-06-15T01:06:53.240Z,0.00
2019-06-15T01:07:46.423Z,0.00
2019-06-15T01:08:53.219Z,0.00
2019-06-15T01:09:46.366Z,0.00
2019-06-15T01:10:47.402Z,0.00
2019-06-15T01:11:46.330Z,0.00
2019-06-15T01:12:47.421Z,0.00
2019-06-15T01:13:46.285Z,0.00
2019-06-15T01:14:48.400Z,0.00
2019-06-15T01:15:46.232Z,0.00
2019-06-15T01:16:46.337Z,0.00
2019-06-15T01:17:46.173Z,0.00
2019-06-15T01:18:46.224Z,0.00
2019-06-15T01:19:46.136Z,0.00
2019-06-15T01:20:46.165Z,0.00
2019-06-15T01:21:46.077Z,0.00
2019-06-15T01:22:46.151Z,0.00
2019-06-15T01:23:46.040Z,0.00
2019-06-15T01:24:47.179Z,0.00
2019-06-15T01:25:45.968Z,0.00
2019-06-15T01:26:45.971Z,0.00
2019-06-15T01:27:45.946Z,0.00
2019-06-15T01:28:46.023Z,0.00
2019-06-15T01:29:45.896Z,0.00
2019-06-15T01:30:46.919Z,0.00
2019-06-15T01:31:45.914Z,0.00
2019-06-15T01:32:45.907Z,0.00
2019-06-15T01:33:45.801Z,0.00
2019-06-15T01:34:47.755Z,0.00
2019-06-15T01:35:45.742Z,0.00
2019-06-15T01:36:45.717Z,0.00
2019-06-15T01:37:45.682Z,0.00
2019-06-15T01:38:45.727Z,0.00
2019-06-15T01:39:45.626Z,0.00
2019-06-15T01:40:45.639Z,0.00
2019-06-15T01:41:45.592Z,0.00
2019-06-15T01:42:45.652Z,0.00
2019-06-15T01:43:45.558Z,0.00
2019-06-15T01:44:45.562Z,0.00
2019-06-15T01:45:45.500Z,0.00
2019-06-15T01:46:45.584Z,0.00
2019-06-15T01:47:45.460Z,0.00
2019-06-15T01:48:45.507Z,0.00
2019-06-15T01:49:45.389Z,0.00
2019-06-15T01:50:45.399Z,0.00
2019-06-15T01:51:45.352Z,0.00
2019-06-15T01:52:45.419Z,0.00
2019-06-15T01:53:45.312Z,0.00
2019-06-15T01:54:45.328Z,0.00
2019-06-15T01:55:45.267Z,0.00
2019-06-15T01:56:45.338Z,0.00
2019-06-15T01:57:45.208Z,0.00
2019-06-15T01:58:45.245Z,0.00
2019-06-15T01:59:45.150Z,0.00
2019-06-15T02:00:45.183Z,0.00
2019-06-15T02:01:45.108Z,0.00
2019-06-15T02:02:45.203Z,0.00
2019-06-15T02:03:45.060Z,0.00
2019-06-15T02:04:45.104Z,0.00
2019-06-15T02:05:44.990Z,0.00
2019-06-15T02:06:45.017Z,0.00
2019-06-15T02:07:44.959Z,0.00
2019-06-15T02:08:45.016Z,0.00
2019-06-15T02:09:44.980Z,0.00
2019-06-15T02:10:44.919Z,0.00
2019-06-15T02:11:44.840Z,0.00
2019-06-15T02:12:44.859Z,0.00
2019-06-15T02:13:44.794Z,0.00
2019-06-15T02:14:44.854Z,0.00
2019-06-15T02:15:44.739Z,0.00
2019-06-15T02:16:44.760Z,0.00
2019-06-15T02:17:44.766Z,0.00
2019-06-15T02:18:44.756Z,0.00
2019-06-15T02:19:44.653Z,0.00
2019-06-15T02:20:44.693Z,0.00
2019-06-15T02:21:44.618Z,0.00
2019-06-15T02:22:44.599Z,0.00
2019-06-15T02:23:44.559Z,0.00
2019-06-15T02:24:44.685Z,0.00
2019-06-15T02:25:44.485Z,0.00
2019-06-15T02:26:44.542Z,0.00
2019-06-15T02:27:44.457Z,0.00
2019-06-15T02:28:44.554Z,0.00
2019-06-15T02:29:44.399Z,0.00
2019-06-15T02:30:44.450Z,0.00
2019-06-15T02:31:44.431Z,0.00
2019-06-15T02:32:44.354Z,0.00
2019-06-15T02:33:44.325Z,0.00
2019-06-15T02:34:44.360Z,0.00
2019-06-15T02:35:44.253Z,0.00
2019-06-15T02:36:44.285Z,4.00
2019-06-15T02:37:44.199Z,4.00
2019-06-15T02:38:44.196Z,4.00
2019-06-15T02:39:44.161Z,4.00
2019-06-15T02:40:44.321Z,0.00
2019-06-15T02:41:44.104Z,4.00
2019-06-15T02:42:45.113Z,4.00
2019-06-15T02:43:44.049Z,4.00
2019-06-15T02:44:44.129Z,4.00
2019-06-15T02:45:44.004Z,4.00
2019-06-15T02:46:44.022Z,8.00
2019-06-15T02:47:43.945Z,4.00
2019-06-15T02:48:44.048Z,8.00
2019-06-15T02:49:43.906Z,8.00
2019-06-15T02:50:43.947Z,12.00
2019-06-15T02:51:43.851Z,12.00
2019-06-15T02:52:43.853Z,8.00
2019-06-15T02:53:45.554Z,8.00
2019-06-15T02:54:43.877Z,12.00
2019-06-15T02:55:50.731Z,8.00
2019-06-15T02:56:43.779Z,8.00
2019-06-15T02:57:43.683Z,8.00
2019-06-15T02:58:43.732Z,8.00
2019-06-15T02:59:43.658Z,12.00
2019-06-15T03:00:43.708Z,12.00
2019-06-15T03:01:43.596Z,12.00
2019-06-15T03:02:43.678Z,12.00
2019-06-15T03:03:43.553Z,12.00
2019-06-15T03:04:43.639Z,8.00
2019-06-15T03:05:43.504Z,8.00
2019-06-15T03:06:43.562Z,8.00
2019-06-15T03:07:43.467Z,12.00
2019-06-15T03:08:43.467Z,16.00
2019-06-15T03:09:43.417Z,16.00
2019-06-15T03:10:43.552Z,8.00
2019-06-15T03:11:43.363Z,8.00
2019-06-15T03:12:43.384Z,12.00
2019-06-15T03:13:43.296Z,20.00
2019-06-15T03:14:43.303Z,20.00
2019-06-15T03:15:43.256Z,20.00
2019-06-15T03:16:43.229Z,28.00
2019-06-15T03:17:43.309Z,32.00
2019-06-15T03:18:43.212Z,36.00
2019-06-15T03:19:43.154Z,36.00
2019-06-15T03:20:43.241Z,40.00
2019-06-15T03:21:43.099Z,40.00
2019-06-15T03:22:43.158Z,36.00
2019-06-15T03:23:43.063Z,36.00
2019-06-15T03:24:45.119Z,40.00
2019-06-15T03:25:43.010Z,44.00
2019-06-15T03:26:44.079Z,52.00
2019-06-15T03:27:42.963Z,56.00
2019-06-15T03:28:50.776Z,64.00
2019-06-15T03:29:42.901Z,72.00
2019-06-15T03:30:43.942Z,80.00
2019-06-15T03:31:42.865Z,84.00
2019-06-15T03:32:50.716Z,72.00
2019-06-15T03:33:42.844Z,68.00
2019-06-15T03:34:58.709Z,64.00
2019-06-15T03:35:42.764Z,56.00
2019-06-15T03:36:50.751Z,60.00
2019-06-15T03:37:42.698Z,68.00
2019-06-15T03:38:44.792Z,72.00
2019-06-15T03:39:42.685Z,84.00
2019-06-15T03:40:49.230Z,96.00
2019-06-15T03:41:42.619Z,100.00
2019-06-15T03:42:42.657Z,92.00
2019-06-15T03:43:42.557Z,84.00
2019-06-15T03:44:49.244Z,80.00
2019-06-15T03:45:42.517Z,92.00
2019-06-15T03:46:43.517Z,88.00
2019-06-15T03:47:42.464Z,100.00
2019-06-15T03:48:50.193Z,132.00
2019-06-15T03:49:42.418Z,168.00
2019-06-15T03:50:50.213Z,232.00
2019-06-15T03:51:42.353Z,288.00
2019-06-15T03:52:42.438Z,324.00
2019-06-15T03:53:42.303Z,340.00
2019-06-15T03:54:42.348Z,360.00
2019-06-15T03:55:42.269Z,404.00
2019-06-15T03:56:42.260Z,460.00
2019-06-15T03:57:42.261Z,520.00
2019-06-15T03:58:43.294Z,580.00
2019-06-15T03:59:42.176Z,648.00
2019-06-15T04:00:42.172Z,724.00
2019-06-15T04:01:42.105Z,804.00
2019-06-15T04:02:44.170Z,836.00
2019-06-15T04:03:42.053Z,892.00
2019-06-15T04:04:42.107Z,920.00
2019-06-15T04:05:42.006Z,944.00
2019-06-15T04:06:43.088Z,984.00
2019-06-15T04:07:41.981Z,1004.00
2019-06-15T04:08:41.975Z,1004.00
2019-06-15T04:09:41.919Z,996.00
2019-06-15T04:10:41.974Z,1056.00
2019-06-15T04:11:41.848Z,1036.00
2019-06-15T04:12:48.778Z,980.00
2019-06-15T04:13:41.825Z,1000.00
2019-06-15T04:14:41.811Z,1044.00
2019-06-15T04:15:41.753Z,1024.00
2019-06-15T04:16:42.851Z,1076.00
2019-06-15T04:17:41.868Z,1144.00
2019-06-15T04:18:41.740Z,1060.00
2019-06-15T04:19:41.662Z,968.00
2019-06-15T04:20:49.230Z,1000.00
2019-06-15T04:21:41.608Z,1132.00
2019-06-15T04:22:41.709Z,1208.00
2019-06-15T04:23:41.558Z,1272.00
2019-06-15T04:24:42.673Z,1376.00
2019-06-15T04:25:44.116Z,1392.00
2019-06-15T04:26:41.582Z,1348.00
2019-06-15T04:27:41.467Z,1304.00
2019-06-15T04:28:49.208Z,1304.00
2019-06-15T04:29:41.404Z,1328.00
2019-06-15T04:30:49.194Z,1356.00
2019-06-15T04:31:41.394Z,1368.00
2019-06-15T04:32:41.374Z,1384.00
2019-06-15T04:33:41.305Z,1424.00
2019-06-15T04:34:41.389Z,1452.00
2019-06-15T04:35:41.271Z,1488.00
2019-06-15T04:36:41.304Z,1544.00
2019-06-15T04:37:41.210Z,1616.00
2019-06-15T04:38:41.307Z,1640.00
2019-06-15T04:39:41.162Z,1644.00
2019-06-15T04:40:41.222Z,1672.00
2019-06-15T04:41:41.104Z,1732.00
2019-06-15T04:42:41.223Z,1796.00
2019-06-15T04:43:41.054Z,1880.00
2019-06-15T04:44:41.141Z,1988.00
2019-06-15T04:45:41.027Z,2104.00
2019-06-15T04:46:41.059Z,2220.00
2019-06-15T04:47:40.965Z,2324.00
2019-06-15T04:48:41.055Z,2508.00
2019-06-15T04:49:40.909Z,2620.00
2019-06-15T04:50:40.991Z,2628.00
2019-06-15T04:51:40.869Z,2620.00
2019-06-15T04:52:40.921Z,2668.00
2019-06-15T04:53:40.810Z,2732.00
2019-06-15T04:54:40.906Z,2732.00
2019-06-15T04:55:40.778Z,2824.00
2019-06-15T04:56:50.519Z,2920.00
2019-06-15T04:57:40.703Z,2848.00
2019-06-15T04:58:40.851Z,2752.00
2019-06-15T04:59:40.652Z,2680.00
2019-06-15T05:00:40.735Z,2676.00
2019-06-15T05:01:40.622Z,2672.00
2019-06-15T05:02:40.656Z,2692.00
2019-06-15T05:03:40.559Z,2724.00
2019-06-15T05:04:40.546Z,2716.00
2019-06-15T05:05:40.506Z,2772.00
2019-06-15T05:06:40.581Z,2956.00
2019-06-15T05:07:40.460Z,2932.00
2019-06-15T05:08:40.496Z,2804.00
2019-06-15T05:09:40.422Z,2672.00
2019-06-15T05:10:40.529Z,2588.00
2019-06-15T05:11:40.368Z,2520.00
2019-06-15T05:12:56.302Z,2276.00
2019-06-15T05:13:40.314Z,2004.00
2019-06-15T05:14:40.506Z,1600.00
2019-06-15T05:15:40.342Z,1396.00
2019-06-15T05:16:48.318Z,1296.00
2019-06-15T05:17:40.235Z,1364.00
2019-06-15T05:18:40.231Z,1148.00
2019-06-15T05:19:40.163Z,1076.00
2019-06-15T05:20:40.253Z,1032.00
2019-06-15T05:21:40.107Z,1188.00
2019-06-15T05:22:40.174Z,1552.00
2019-06-15T05:23:40.075Z,1572.00
2019-06-15T05:24:47.765Z,1752.00
2019-06-15T05:25:40.004Z,1972.00
2019-06-15T05:26:41.124Z,2100.00
2019-06-15T05:27:39.954Z,2476.00
2019-06-15T05:28:40.011Z,2820.00
2019-06-15T05:29:39.922Z,3060.00
2019-06-15T05:30:40.018Z,3032.00
2019-06-15T05:31:39.874Z,3188.00
2019-06-15T05:32:46.793Z,3364.00
2019-06-15T05:33:39.834Z,3356.00
2019-06-15T05:34:40.854Z,3256.00
2019-06-15T05:35:39.760Z,2968.00
2019-06-15T05:37:00.748Z,2864.00
2019-06-15T05:37:39.706Z,3028.00
2019-06-15T05:38:39.763Z,3120.00
2019-06-15T05:39:39.686Z,3004.00
2019-06-15T05:40:39.776Z,2944.00
2019-06-15T05:41:39.610Z,2972.00
2019-06-15T05:42:55.400Z,3052.00
2019-06-15T05:43:39.556Z,3040.00
2019-06-15T05:44:41.650Z,3124.00
2019-06-15T05:45:39.527Z,3128.00
2019-06-15T05:46:46.268Z,3132.00
2019-06-15T05:47:39.474Z,3228.00
2019-06-15T05:48:40.532Z,2988.00
2019-06-15T05:49:39.409Z,2920.00
2019-06-15T05:51:39.364Z,3360.00
2019-06-15T05:52:46.320Z,3516.00
2019-06-15T05:53:39.332Z,3596.00
2019-06-15T05:54:41.408Z,3540.00
2019-06-15T05:55:39.265Z,2972.00
2019-06-15T05:56:40.437Z,2176.00
2019-06-15T05:57:39.216Z,2496.00
2019-06-15T05:59:00.309Z,2588.00
2019-06-15T05:59:39.185Z,2328.00
2019-06-15T06:00:39.251Z,2428.00
2019-06-15T06:01:39.100Z,2580.00
2019-06-15T06:02:46.803Z,2360.00
2019-06-15T06:03:39.058Z,2152.00
2019-06-15T06:04:46.814Z,2184.00
2019-06-15T06:05:39.019Z,2200.00
2019-06-15T06:07:03.811Z,2000.00
2019-06-15T06:07:38.972Z,1824.00
2019-06-15T06:08:59.937Z,1696.00
2019-06-15T06:09:38.911Z,1468.00
2019-06-15T06:10:55.897Z,1204.00
2019-06-15T06:11:38.875Z,1176.00
2019-06-15T06:12:53.813Z,1436.00
2019-06-15T06:13:38.805Z,1632.00
2019-06-15T06:14:39.938Z,1520.00
2019-06-15T06:15:38.777Z,1184.00
2019-06-15T06:16:53.854Z,920.00
2019-06-15T06:17:38.714Z,812.00
2019-06-15T06:18:46.448Z,896.00
2019-06-15T06:19:38.688Z,1160.00
2019-06-15T06:21:38.629Z,1536.00
2019-06-15T06:22:38.632Z,1596.00
2019-06-15T06:24:01.678Z,1916.00
2019-06-15T06:24:38.544Z,2456.00
2019-06-15T06:25:38.500Z,2824.00
2019-06-15T06:26:39.582Z,2724.00
2019-06-15T06:27:38.480Z,2408.00
2019-06-15T06:28:39.596Z,1992.00
2019-06-15T06:29:38.411Z,1780.00
2019-06-15T07:39:52.462Z,816.00
2019-06-15T07:40:22.846Z,820.00
2019-06-15T07:41:37.483Z,712.00
2019-06-15T07:42:22.794Z,820.00
2019-06-15T08:38:31.384Z,2036.00
2019-06-15T08:39:31.341Z,2048.00
2019-06-15T08:40:31.340Z,1944.00
2019-06-15T08:41:31.387Z,1748.00
2019-06-15T08:42:31.273Z,1532.00
2019-06-15T08:43:31.312Z,1544.00
2019-06-15T08:44:31.221Z,1424.00
2019-06-15T08:45:31.218Z,1296.00
2019-06-15T08:46:31.170Z,1276.00
2019-06-15T08:47:31.227Z,1220.00
2019-06-15T08:48:31.120Z,1200.00
2019-06-15T08:49:31.152Z,1128.00
2019-06-15T08:50:31.067Z,1076.00
2019-06-15T08:51:31.167Z,1084.00
2019-06-15T08:52:31.020Z,1168.00
2019-06-15T08:53:31.070Z,1276.00
2019-06-15T08:54:30.965Z,1304.00
2019-06-15T08:55:30.946Z,1272.00
2019-06-15T08:56:30.947Z,1260.00
2019-06-15T08:57:31.003Z,1364.00
2019-06-15T08:58:30.872Z,1584.00
2019-06-15T08:59:30.920Z,1932.00
2019-06-15T09:00:30.853Z,2312.00
2019-06-15T09:01:30.831Z,2700.00
2019-06-15T09:02:30.807Z,3020.00
2019-06-15T09:39:23.682Z,2584.00
2019-06-15T09:40:21.746Z,2616.00
2019-06-15T09:41:21.720Z,2108.00
2019-06-15T09:42:21.692Z,2744.00
2019-06-15T09:43:21.768Z,2356.00
2019-06-15T09:44:21.644Z,2528.00
2019-06-15T09:45:33.046Z,3700.00
2019-06-15T09:50:27.654Z,2764.00
2019-06-15T09:51:27.694Z,3152.00
2019-06-15T09:52:27.581Z,4364.00
2019-06-15T09:53:27.571Z,5296.00
2019-06-15T09:54:28.213Z,6204.00
2019-06-15T09:55:27.500Z,5440.00
2019-06-15T09:56:27.472Z,4980.00
2019-06-15T09:57:27.489Z,4560.00
2019-06-15T09:58:27.449Z,4392.00
2019-06-15T09:59:27.405Z,4016.00
2019-06-15T10:00:27.358Z,4512.00
2019-06-15T10:01:27.415Z,4348.00
2019-06-15T10:02:27.310Z,4464.00
2019-06-15T10:03:27.551Z,3816.00
2019-06-15T10:04:27.258Z,3176.00
2019-06-15T10:05:27.349Z,2540.00
2019-06-15T10:06:27.213Z,1840.00
2019-06-15T10:07:28.264Z,2336.00
2019-06-15T10:08:27.184Z,2768.00
2019-06-15T10:09:27.170Z,1968.00
2019-06-15T10:10:27.129Z,2360.00
2019-06-15T10:11:27.180Z,3772.00
2019-06-15T10:12:27.088Z,3036.00
2019-06-15T10:13:27.100Z,4152.00
2019-06-15T10:19:32.560Z,3808.00
2019-06-15T10:20:32.549Z,3460.00
2019-06-15T10:21:32.496Z,4176.00
2019-06-15T10:22:32.494Z,2464.00
2019-06-15T10:23:32.445Z,3004.00
2019-06-15T10:24:32.430Z,3844.00
2019-06-15T10:25:32.469Z,4236.00
2019-06-15T10:26:32.363Z,4000.00
2019-06-15T10:27:32.383Z,3536.00
2019-06-15T10:28:32.329Z,3196.00
2019-06-15T10:29:41.668Z,3072.00
2019-06-15T10:30:32.261Z,3776.00
2019-06-15T10:31:32.429Z,4036.00
2019-06-15T10:32:32.255Z,3740.00
2019-06-15T10:33:32.333Z,3672.00
2019-06-15T10:34:32.173Z,3468.00
2019-06-15T10:35:32.355Z,3448.00
2019-06-15T10:36:32.149Z,3408.00
2019-06-15T10:37:32.270Z,3440.00
2019-06-15T10:38:32.059Z,2840.00
2019-06-15T10:39:32.046Z,1820.00
2019-06-15T10:40:32.030Z,1752.00
2019-06-15T10:41:32.003Z,1664.00
2019-06-15T10:42:31.971Z,1728.00
2019-06-15T10:43:31.972Z,1424.00
2019-06-15T10:44:31.941Z,1728.00
2019-06-15T10:45:31.905Z,1428.00
2019-06-15T10:46:31.884Z,712.00
2019-06-15T10:47:32.032Z,880.00
2019-06-15T10:48:31.827Z,1508.00
2019-06-15T10:49:31.835Z,1592.00
2019-06-15T10:50:31.819Z,952.00
2019-06-15T10:51:31.758Z,1024.00
2019-06-15T10:52:31.761Z,712.00
2019-06-15T10:53:31.759Z,1056.00
2019-06-15T10:54:31.695Z,1768.00
2019-06-15T10:55:31.671Z,1992.00
2019-06-15T10:56:31.756Z,2000.00
2019-06-15T10:57:31.718Z,2088.00
2019-06-15T10:58:31.657Z,2348.00
2019-06-15T10:59:31.594Z,3340.00
2019-06-15T11:00:31.648Z,4572.00
2019-06-15T11:01:31.540Z,3680.00
2019-06-15T11:02:31.510Z,1852.00
2019-06-15T11:03:31.514Z,2552.00
2019-06-15T11:04:31.417Z,4140.00
2019-06-15T11:05:31.388Z,5292.00
2019-06-15T11:06:31.371Z,5136.00
2019-06-15T11:07:31.347Z,4344.00
2019-06-15T11:08:31.322Z,3776.00
2019-06-15T11:09:31.305Z,4148.00
2019-06-15T11:10:31.467Z,2600.00
2019-06-15T11:11:31.286Z,3400.00
2019-06-15T11:12:45.470Z,4140.00
2019-06-15T11:13:31.209Z,3440.00
2019-06-15T11:14:31.315Z,3456.00
2019-06-15T11:15:31.174Z,4000.00
2019-06-15T11:16:31.154Z,3972.00
2019-06-15T11:17:31.112Z,4992.00
2019-06-15T11:18:31.140Z,6432.00
2019-06-15T11:19:31.093Z,7716.00
2019-06-15T11:20:31.037Z,7668.00
2019-06-15T11:21:31.029Z,7656.00
2019-06-15T11:22:31.012Z,7500.00
2019-06-15T11:23:30.959Z,6936.00
2019-06-15T11:24:30.968Z,6268.00
2019-06-15T11:25:30.918Z,5760.00
2019-06-15T11:26:30.907Z,5228.00
2019-06-15T11:27:30.870Z,4696.00
2019-06-15T11:28:30.870Z,4504.00
2019-06-15T11:29:30.808Z,3868.00
2019-06-15T11:30:30.787Z,3192.00
2019-06-15T11:31:30.779Z,2532.00
2019-06-15T11:32:30.740Z,3212.00
2019-06-15T11:33:30.722Z,2512.00
2019-06-15T11:34:30.746Z,2704.00
2019-06-15T11:35:30.672Z,4048.00
2019-06-15T11:36:30.737Z,4264.00
2019-06-15T11:37:30.610Z,5188.00
2019-06-15T11:38:30.647Z,6232.00
2019-06-15T11:39:30.566Z,4492.00
2019-06-15T11:40:30.549Z,2744.00
2019-06-15T11:41:30.534Z,1964.00
2019-06-15T11:42:30.567Z,1808.00
2019-06-15T11:43:30.469Z,2488.00
2019-06-15T11:44:30.467Z,3784.00
2019-06-15T11:45:30.421Z,5316.00
2019-06-15T11:46:30.501Z,4908.00
2019-06-15T11:47:30.396Z,3940.00
2019-06-15T11:48:30.408Z,3172.00
2019-06-15T11:49:30.319Z,3036.00
2019-06-15T11:50:30.332Z,3164.00
2019-06-15T11:51:30.275Z,3140.00
2019-06-15T11:52:30.334Z,3492.00
2019-06-15T11:53:30.221Z,5792.00
2019-06-15T11:54:30.257Z,4628.00
2019-06-15T11:55:39.124Z,4384.00
2019-06-15T11:56:30.175Z,3776.00
2019-06-15T11:57:30.190Z,3720.00
2019-06-15T11:58:30.114Z,2960.00
2019-06-15T11:59:31.107Z,3084.00
2019-06-15T12:00:31.535Z,3760.00
2019-06-15T12:01:30.024Z,4212.00
2019-06-15T12:02:30.030Z,3744.00
2019-06-15T12:03:29.987Z,3484.00
2019-06-15T12:04:30.174Z,3640.00
2019-06-15T12:05:31.053Z,4928.00
2019-06-15T12:06:29.910Z,4908.00
2019-06-15T12:07:29.873Z,3304.00
2019-06-15T12:08:31.117Z,2288.00
2019-06-15T12:09:29.818Z,2756.00
2019-06-15T12:10:57.456Z,3752.00
2019-06-15T12:11:29.780Z,4972.00
2019-06-15T12:12:29.762Z,4704.00
2019-06-15T12:40:49.924Z,6160.00
2019-06-15T12:41:52.028Z,6056.00
2019-06-15T12:42:49.866Z,5432.00
2019-06-15T12:43:49.881Z,4084.00
2019-06-15T12:44:49.823Z,2976.00
2019-06-15T12:45:57.853Z,2652.00
2019-06-15T12:46:49.983Z,2728.00
2019-06-15T12:47:49.801Z,3168.00
2019-06-15T12:48:49.719Z,3836.00
2019-06-15T12:50:10.704Z,4224.00
2019-06-15T12:50:49.661Z,3684.00
2019-06-15T12:51:50.772Z,4040.00
2019-06-15T12:52:49.826Z,3264.00
2019-06-15T12:53:49.618Z,2848.00
2019-06-15T12:54:49.564Z,3044.00
2019-06-15T12:55:56.233Z,3696.00
2019-06-15T12:56:49.519Z,2728.00
2019-06-15T12:57:52.941Z,1684.00
2019-06-15T12:58:49.488Z,1612.00
2019-06-15T12:59:58.201Z,2292.00
2019-06-15T13:01:02.280Z,2508.00
2019-06-15T13:01:49.437Z,3144.00
2019-06-15T13:02:50.430Z,2820.00
2019-06-15T13:03:49.346Z,2468.00
2019-06-15T13:04:57.225Z,2232.00
2019-06-15T13:05:49.330Z,2152.00
2019-06-15T13:06:51.376Z,2668.00
2019-06-15T13:07:49.252Z,3288.00
2019-06-15T13:08:50.277Z,4284.00
2019-06-15T13:09:49.209Z,5816.00
2019-06-15T13:11:10.158Z,4576.00
2019-06-15T13:11:49.145Z,3956.00
2019-06-15T13:12:49.127Z,3456.00
2019-06-15T13:13:49.091Z,3364.00
2019-06-15T13:14:50.112Z,2732.00
2019-06-15T13:15:49.045Z,2964.00
2019-06-15T13:16:49.104Z,3376.00
2019-06-15T13:17:49.130Z,3956.00
2019-06-15T13:18:49.029Z,4032.00
2019-06-15T13:19:48.939Z,3940.00
2019-06-15T13:20:49.970Z,3432.00
2019-06-15T13:21:48.901Z,3828.00
2019-06-15T13:23:10.085Z,5072.00
2019-06-15T13:23:48.857Z,4464.00
2019-06-15T13:24:48.868Z,3196.00
2019-06-15T13:25:48.832Z,2480.00
2019-06-15T13:26:48.872Z,2296.00
2019-06-15T13:27:48.763Z,2108.00
2019-06-15T13:28:55.904Z,2068.00
2019-06-15T13:29:49.610Z,2092.00
2019-06-15T13:30:56.225Z,2020.00
2019-06-15T13:31:52.662Z,1948.00
2019-06-15T13:32:49.777Z,1960.00
2019-06-15T13:33:48.660Z,1968.00
2019-06-15T13:34:49.274Z,1948.00
2019-06-15T13:35:48.670Z,1940.00
2019-06-15T13:36:48.535Z,1952.00
2019-06-15T13:37:48.583Z,1948.00
2019-06-15T13:38:48.502Z,1920.00
2019-06-15T13:39:48.473Z,1944.00
2019-06-15T13:40:48.436Z,1916.00
2019-06-15T13:41:48.430Z,1940.00
2019-06-15T13:42:48.510Z,1984.00
2019-06-15T13:43:48.368Z,2060.00
2019-06-15T13:44:48.358Z,2104.00
2019-06-15T13:45:48.329Z,2220.00
2019-06-15T13:46:48.314Z,2184.00
2019-06-15T13:47:58.533Z,2128.00
2019-06-15T13:48:48.457Z,2108.00
2019-06-15T13:49:48.246Z,2128.00
2019-06-15T13:50:48.224Z,2312.00
2019-06-15T13:51:48.209Z,2212.00
2019-06-15T13:52:48.145Z,2068.00
2019-06-15T13:53:48.125Z,1920.00
2019-06-15T13:54:48.138Z,2112.00
2019-06-15T13:55:49.166Z,2296.00
2019-06-15T13:56:48.059Z,2200.00
2019-06-15T13:57:48.264Z,2512.00
2019-06-15T13:58:48.022Z,3240.00
2019-06-15T13:59:47.986Z,3908.00
2019-06-15T14:00:47.949Z,3508.00
2019-06-15T14:01:47.932Z,4060.00
2019-06-15T14:02:48.036Z,3700.00
2019-06-15T14:03:47.892Z,3632.00
2019-06-15T14:04:47.862Z,3596.00
2019-06-15T14:05:47.951Z,3812.00
2019-06-15T14:06:47.813Z,3744.00
2019-06-15T14:07:48.006Z,4108.00
2019-06-15T14:08:47.751Z,4400.00
2019-06-15T14:09:47.831Z,4340.00
2019-06-15T14:10:47.725Z,3836.00
2019-06-15T14:11:47.683Z,4008.00
2019-06-15T14:12:47.651Z,4620.00
2019-06-15T14:13:47.638Z,3808.00
2019-06-15T14:14:47.613Z,2908.00
2019-06-15T14:15:47.833Z,2864.00
2019-06-15T14:16:47.642Z,2564.00
2019-06-15T14:17:47.571Z,2400.00
2019-06-15T14:18:47.566Z,2312.00
2019-06-15T14:19:47.523Z,2392.00
2019-06-15T14:20:47.563Z,2568.00
2019-06-15T14:21:47.444Z,2180.00
2019-06-15T14:22:47.499Z,2152.00
2019-06-15T14:23:47.416Z,2640.00
2019-06-15T14:24:47.503Z,2920.00
2019-06-15T14:25:47.365Z,2344.00
2019-06-15T14:26:47.398Z,2248.00
2019-06-15T14:27:47.303Z,2216.00
2019-06-15T14:28:47.311Z,2308.00
2019-06-15T14:29:47.244Z,2280.00
2019-06-15T14:30:47.327Z,2552.00
2019-06-15T14:31:50.532Z,3364.00
2019-06-15T14:32:47.241Z,2928.00
2019-06-15T14:33:47.161Z,2444.00
2019-06-15T14:34:47.240Z,2308.00
2019-06-15T14:35:47.089Z,1952.00
2019-06-15T14:36:47.192Z,1976.00
2019-06-15T14:37:47.064Z,2080.00
2019-06-15T14:38:47.066Z,2480.00
2019-06-15T14:39:46.996Z,3472.00
2019-06-15T14:40:47.076Z,3824.00
2019-06-15T14:41:50.835Z,3640.00
2019-06-15T14:42:47.051Z,3204.00
2019-06-15T14:43:46.907Z,3656.00
2019-06-15T14:44:46.927Z,2992.00
2019-06-15T14:45:59.131Z,3180.00
2019-06-15T14:46:46.860Z,2636.00
2019-06-15T14:47:46.914Z,2840.00
2019-06-15T14:48:46.771Z,3240.00
2019-06-15T14:49:46.899Z,3296.00
2019-06-15T14:50:46.775Z,4032.00
2019-06-15T14:51:46.748Z,3940.00
2019-06-15T14:52:46.749Z,3216.00
2019-06-15T14:53:49.901Z,2640.00
2019-06-15T14:54:46.685Z,2456.00
2019-06-15T14:55:46.608Z,2432.00
2019-06-15T14:56:46.597Z,2652.00
2019-06-15T14:57:46.553Z,2976.00
2019-06-15T14:58:46.590Z,2816.00
2019-06-15T14:59:59.405Z,2432.00
2019-06-15T15:00:46.745Z,3316.00
2019-06-15T15:01:47.026Z,3380.00
2019-06-15T15:02:46.831Z,3692.00
2019-06-15T15:03:47.254Z,4168.00
2019-06-15T15:04:47.475Z,4056.00
2019-06-15T15:05:46.385Z,3084.00
2019-06-15T15:06:47.169Z,2444.00
2019-06-15T15:07:46.910Z,2792.00
2019-06-15T15:08:47.132Z,2236.00
2019-06-15T15:09:49.181Z,1992.00
2019-06-15T15:10:46.299Z,1920.00
2019-06-15T15:11:46.304Z,1896.00
2019-06-15T15:12:46.246Z,1884.00
2019-06-15T15:13:47.204Z,1896.00
2019-06-15T15:14:46.923Z,1920.00
2019-06-15T15:15:46.788Z,2036.00
2019-06-15T15:16:46.707Z,2160.00
2019-06-15T15:17:46.169Z,2196.00
2019-06-15T15:18:46.446Z,2208.00
2019-06-15T15:19:46.616Z,2076.00
2019-06-15T15:20:46.022Z,1980.00
2019-06-15T15:21:47.053Z,1884.00
2019-06-15T15:22:46.532Z,1836.00
2019-06-15T15:23:52.699Z,1904.00
2019-06-15T15:24:45.930Z,1956.00
2019-06-15T15:25:48.043Z,1688.00
2019-06-15T15:26:47.018Z,1940.00
2019-06-15T15:27:46.812Z,1900.00
2019-06-15T15:28:47.297Z,2020.00
2019-06-15T15:29:52.760Z,1828.00
2019-06-15T15:30:45.762Z,2292.00
2019-06-15T15:31:46.724Z,2116.00
2019-06-15T15:32:46.778Z,2228.00
2019-06-15T15:33:47.689Z,2728.00
2019-06-15T15:34:45.800Z,2592.00
2019-06-15T15:35:46.676Z,2640.00
2019-06-15T15:36:46.262Z,2392.00
2019-06-15T15:37:46.344Z,2068.00
2019-06-15T15:38:46.866Z,2288.00
2019-06-15T15:39:46.961Z,1864.00
2019-06-15T15:40:46.779Z,1724.00
2019-06-15T15:41:47.017Z,1916.00
2019-06-15T15:42:45.512Z,2008.00
2019-06-15T15:43:46.280Z,1624.00
2019-06-15T15:44:47.118Z,1440.00